sensor_id;sensor_type;location;lat;lon;timestamp;P1;durP1;ratioP1;P2;durP2;ratioP2
7179;SDS011;3631;42.152;24.756;2022-12-18T00:01:14;65.97;;;42.10;;
7179;SDS011;3631;42.152;24.756;2022-12-18T00:03:42;65.77;;;40.80;;
7179;SDS011;3631;42.152;24.756;2022-12-18T00:06:10;68.10;;;42.83;;
7179;SDS011;3631;42.152;24.756;2022-12-18T00:08:38;71.23;;;44.13;;
7179;SDS011;3631;42.152;24.756;2022-12-18T00:11:05;67.53;;;41.50;;
7179;SDS011;3631;42.152;24.756;2022-12-18T00:13:33;62.40;;;41.43;;
7179;SDS011;3631;42.152;24.756;2022-12-18T00:16:03;67.37;;;41.80;;
7179;SDS011;3631;42.152;24.756;2022-12-18T00:18:32;68.97;;;42.23;;
7179;SDS011;3631;42.152;24.756;2022-12-18T00:20:59;66.23;;;41.23;;
7179;SDS011;3631;42.152;24.756;2022-12-18T00:23:27;63.60;;;41.77;;
7179;SDS011;3631;42.152;24.756;2022-12-18T00:25:54;63.00;;;39.77;;
7179;SDS011;3631;42.152;24.756;2022-12-18T00:28:24;61.50;;;38.80;;
7179;SDS011;3631;42.152;24.756;2022-12-18T00:30:58;63.70;;;39.43;;
7179;SDS011;3631;42.152;24.756;2022-12-18T00:33:28;60.27;;;37.43;;
7179;SDS011;3631;42.152;24.756;2022-12-18T00:35:59;58.30;;;36.53;;
7179;SDS011;3631;42.152;24.756;2022-12-18T00:38:27;56.73;;;36.57;;
7179;SDS011;3631;42.152;24.756;2022-12-18T00:40:54;46.43;;;34.03;;
7179;SDS011;3631;42.152;24.756;2022-12-18T00:43:21;52.03;;;34.47;;
7179;SDS011;3631;42.152;24.756;2022-12-18T00:45:47;48.20;;;31.80;;
7179;SDS011;3631;42.152;24.756;2022-12-18T00:48:13;48.03;;;32.50;;
7179;SDS011;3631;42.152;24.756;2022-12-18T00:50:42;63.73;;;39.60;;
7179;SDS011;3631;42.152;24.756;2022-12-18T00:53:09;58.97;;;37.67;;
7179;SDS011;3631;42.152;24.756;2022-12-18T00:55:36;66.20;;;40.73;;
7179;SDS011;3631;42.152;24.756;2022-12-18T00:58:03;65.77;;;41.63;;
7179;SDS011;3631;42.152;24.756;2022-12-18T01:00:30;69.40;;;41.63;;
7179;SDS011;3631;42.152;24.756;2022-12-18T01:02:57;54.40;;;38.90;;
7179;SDS011;3631;42.152;24.756;2022-12-18T01:05:25;64.83;;;39.47;;
7179;SDS011;3631;42.152;24.756;2022-12-18T01:07:54;67.13;;;39.63;;
7179;SDS011;3631;42.152;24.756;2022-12-18T01:10:22;60.07;;;38.37;;
7179;SDS011;3631;42.152;24.756;2022-12-18T01:12:49;56.73;;;37.10;;
7179;SDS011;3631;42.152;24.756;2022-12-18T01:15:17;60.30;;;37.70;;
7179;SDS011;3631;42.152;24.756;2022-12-18T01:17:45;54.73;;;35.77;;
7179;SDS011;3631;42.152;24.756;2022-12-18T01:20:12;60.53;;;37.60;;
7179;SDS011;3631;42.152;24.756;2022-12-18T01:22:39;54.57;;;35.83;;
7179;SDS011;3631;42.152;24.756;2022-12-18T01:25:08;57.17;;;35.17;;
7179;SDS011;3631;42.152;24.756;2022-12-18T01:27:35;52.10;;;33.47;;
7179;SDS011;3631;42.152;24.756;2022-12-18T01:30:02;55.47;;;34.63;;
7179;SDS011;3631;42.152;24.756;2022-12-18T01:32:29;51.83;;;35.27;;
7179;SDS011;3631;42.152;24.756;2022-12-18T01:34:57;55.30;;;35.53;;
7179;SDS011;3631;42.152;24.756;2022-12-18T01:37:24;56.73;;;36.20;;
7179;SDS011;3631;42.152;24.756;2022-12-18T01:39:52;55.93;;;35.33;;
7179;SDS011;3631;42.152;24.756;2022-12-18T01:42:21;48.93;;;35.00;;
7179;SDS011;3631;42.152;24.756;2022-12-18T01:44:55;51.97;;;34.20;;
7179;SDS011;3631;42.152;24.756;2022-12-18T01:47:26;45.77;;;32.50;;
7179;SDS011;3631;42.152;24.756;2022-12-18T01:49:57;49.87;;;32.90;;
7179;SDS011;3631;42.152;24.756;2022-12-18T01:52:28;52.97;;;32.87;;
7179;SDS011;3631;42.152;24.756;2022-12-18T01:54:57;52.37;;;33.63;;
7179;SDS011;3631;42.152;24.756;2022-12-18T01:57:27;51.23;;;34.07;;
7179;SDS011;3631;42.152;24.756;2022-12-18T01:59:56;47.30;;;33.77;;
7179;SDS011;3631;42.152;24.756;2022-12-18T02:02:27;48.70;;;33.93;;
7179;SDS011;3631;42.152;24.756;2022-12-18T02:04:55;46.17;;;31.93;;
7179;SDS011;3631;42.152;24.756;2022-12-18T02:07:23;51.00;;;32.53;;
7179;SDS011;3631;42.152;24.756;2022-12-18T02:09:59;47.53;;;31.33;;
7179;SDS011;3631;42.152;24.756;2022-12-18T02:12:32;46.90;;;30.67;;
7179;SDS011;3631;42.152;24.756;2022-12-18T02:15:09;43.77;;;29.63;;
7179;SDS011;3631;42.152;24.756;2022-12-18T02:17:43;41.37;;;28.23;;
7179;SDS011;3631;42.152;24.756;2022-12-18T02:20:16;41.10;;;28.83;;
7179;SDS011;3631;42.152;24.756;2022-12-18T02:22:56;45.00;;;29.00;;
7179;SDS011;3631;42.152;24.756;2022-12-18T02:25:40;39.83;;;27.83;;
7179;SDS011;3631;42.152;24.756;2022-12-18T02:28:22;35.93;;;25.87;;
7179;SDS011;3631;42.152;24.756;2022-12-18T02:30:52;38.53;;;25.80;;
7179;SDS011;3631;42.152;24.756;2022-12-18T02:33:23;40.10;;;25.57;;
7179;SDS011;3631;42.152;24.756;2022-12-18T02:35:51;36.53;;;26.53;;
7179;SDS011;3631;42.152;24.756;2022-12-18T02:38:21;35.73;;;25.50;;
7179;SDS011;3631;42.152;24.756;2022-12-18T02:40:49;35.30;;;24.97;;
7179;SDS011;3631;42.152;24.756;2022-12-18T02:43:19;33.83;;;24.67;;
7179;SDS011;3631;42.152;24.756;2022-12-18T02:45:47;32.53;;;23.13;;
7179;SDS011;3631;42.152;24.756;2022-12-18T02:48:16;37.27;;;24.13;;
7179;SDS011;3631;42.152;24.756;2022-12-18T02:50:45;33.50;;;24.00;;
7179;SDS011;3631;42.152;24.756;2022-12-18T02:53:21;32.20;;;22.93;;
7179;SDS011;3631;42.152;24.756;2022-12-18T02:55:57;29.63;;;22.10;;
7179;SDS011;3631;42.152;24.756;2022-12-18T02:58:30;31.53;;;22.40;;
7179;SDS011;3631;42.152;24.756;2022-12-18T03:01:06;35.63;;;22.23;;
7179;SDS011;3631;42.152;24.756;2022-12-18T03:03:40;30.97;;;21.80;;
7179;SDS011;3631;42.152;24.756;2022-12-18T03:06:14;32.87;;;21.50;;
7179;SDS011;3631;42.152;24.756;2022-12-18T03:08:48;29.73;;;20.87;;
7179;SDS011;3631;42.152;24.756;2022-12-18T03:11:18;29.40;;;21.53;;
7179;SDS011;3631;42.152;24.756;2022-12-18T03:14:06;28.83;;;20.47;;
7179;SDS011;3631;42.152;24.756;2022-12-18T03:16:33;25.20;;;20.17;;
7179;SDS011;3631;42.152;24.756;2022-12-18T03:19:03;27.07;;;20.70;;
7179;SDS011;3631;42.152;24.756;2022-12-18T03:21:37;26.77;;;19.73;;
7179;SDS011;3631;42.152;24.756;2022-12-18T03:24:09;24.27;;;19.37;;
7179;SDS011;3631;42.152;24.756;2022-12-18T03:26:40;27.90;;;20.17;;
7179;SDS011;3631;42.152;24.756;2022-12-18T03:29:12;26.00;;;20.80;;
7179;SDS011;3631;42.152;24.756;2022-12-18T03:31:45;27.50;;;19.97;;
7179;SDS011;3631;42.152;24.756;2022-12-18T03:34:17;27.43;;;19.97;;
7179;SDS011;3631;42.152;24.756;2022-12-18T03:36:49;27.00;;;20.20;;
7179;SDS011;3631;42.152;24.756;2022-12-18T03:39:16;27.27;;;19.47;;
7179;SDS011;3631;42.152;24.756;2022-12-18T03:41:44;28.60;;;19.33;;
7179;SDS011;3631;42.152;24.756;2022-12-18T03:44:19;27.07;;;19.70;;
7179;SDS011;3631;42.152;24.756;2022-12-18T03:46:54;25.93;;;18.77;;
7179;SDS011;3631;42.152;24.756;2022-12-18T03:49:32;24.40;;;17.70;;
7179;SDS011;3631;42.152;24.756;2022-12-18T03:52:03;25.13;;;17.97;;
7179;SDS011;3631;42.152;24.756;2022-12-18T03:54:33;26.40;;;18.00;;
7179;SDS011;3631;42.152;24.756;2022-12-18T03:57:03;23.03;;;16.83;;
7179;SDS011;3631;42.152;24.756;2022-12-18T03:59:35;23.03;;;17.07;;
7179;SDS011;3631;42.152;24.756;2022-12-18T04:02:05;22.03;;;15.33;;
7179;SDS011;3631;42.152;24.756;2022-12-18T04:04:34;19.20;;;16.03;;
7179;SDS011;3631;42.152;24.756;2022-12-18T04:07:02;21.70;;;16.10;;
7179;SDS011;3631;42.152;24.756;2022-12-18T04:09:30;22.23;;;15.67;;
7179;SDS011;3631;42.152;24.756;2022-12-18T04:11:59;19.80;;;15.23;;
7179;SDS011;3631;42.152;24.756;2022-12-18T04:14:27;18.87;;;14.73;;
7179;SDS011;3631;42.152;24.756;2022-12-18T04:16:54;17.70;;;14.57;;
7179;SDS011;3631;42.152;24.756;2022-12-18T04:19:21;21.00;;;15.03;;
7179;SDS011;3631;42.152;24.756;2022-12-18T04:21:48;17.23;;;14.03;;
7179;SDS011;3631;42.152;24.756;2022-12-18T04:24:15;17.60;;;13.73;;
7179;SDS011;3631;42.152;24.756;2022-12-18T04:26:42;17.23;;;14.10;;
7179;SDS011;3631;42.152;24.756;2022-12-18T04:29:08;16.63;;;14.40;;
7179;SDS011;3631;42.152;24.756;2022-12-18T04:31:37;15.50;;;13.50;;
7179;SDS011;3631;42.152;24.756;2022-12-18T04:34:04;19.40;;;13.80;;
7179;SDS011;3631;42.152;24.756;2022-12-18T04:36:31;16.13;;;13.07;;
7179;SDS011;3631;42.152;24.756;2022-12-18T04:38:58;14.60;;;12.47;;
7179;SDS011;3631;42.152;24.756;2022-12-18T04:41:25;14.13;;;11.87;;
7179;SDS011;3631;42.152;24.756;2022-12-18T04:43:52;13.50;;;11.03;;
7179;SDS011;3631;42.152;24.756;2022-12-18T04:46:18;14.57;;;10.03;;
7179;SDS011;3631;42.152;24.756;2022-12-18T04:48:47;12.70;;;9.87;;
7179;SDS011;3631;42.152;24.756;2022-12-18T04:51:14;12.23;;;9.83;;
7179;SDS011;3631;42.152;24.756;2022-12-18T04:53:41;12.10;;;9.67;;
7179;SDS011;3631;42.152;24.756;2022-12-18T04:56:08;9.37;;;8.47;;
7179;SDS011;3631;42.152;24.756;2022-12-18T04:58:37;10.17;;;9.13;;
7179;SDS011;3631;42.152;24.756;2022-12-18T05:01:05;12.27;;;9.27;;
7179;SDS011;3631;42.152;24.756;2022-12-18T05:03:32;12.00;;;8.63;;
7179;SDS011;3631;42.152;24.756;2022-12-18T05:06:01;8.97;;;8.17;;
7179;SDS011;3631;42.152;24.756;2022-12-18T05:08:28;8.13;;;7.37;;
7179;SDS011;3631;42.152;24.756;2022-12-18T05:10:58;8.37;;;7.60;;
7179;SDS011;3631;42.152;24.756;2022-12-18T05:13:25;9.50;;;7.03;;
7179;SDS011;3631;42.152;24.756;2022-12-18T05:15:52;7.63;;;6.97;;
7179;SDS011;3631;42.152;24.756;2022-12-18T05:18:20;8.13;;;7.40;;
7179;SDS011;3631;42.152;24.756;2022-12-18T05:20:47;7.20;;;6.60;;
7179;SDS011;3631;42.152;24.756;2022-12-18T05:23:15;7.23;;;6.63;;
7179;SDS011;3631;42.152;24.756;2022-12-18T05:25:42;6.50;;;6.00;;
7179;SDS011;3631;42.152;24.756;2022-12-18T05:28:09;6.90;;;6.07;;
7179;SDS011;3631;42.152;24.756;2022-12-18T05:30:35;10.90;;;7.03;;
7179;SDS011;3631;42.152;24.756;2022-12-18T05:33:02;9.57;;;7.00;;
7179;SDS011;3631;42.152;24.756;2022-12-18T05:35:29;7.80;;;7.00;;
7179;SDS011;3631;42.152;24.756;2022-12-18T05:37:56;8.20;;;7.40;;
7179;SDS011;3631;42.152;24.756;2022-12-18T05:40:25;7.87;;;7.17;;
7179;SDS011;3631;42.152;24.756;2022-12-18T05:42:52;8.90;;;7.63;;
7179;SDS011;3631;42.152;24.756;2022-12-18T05:45:19;8.40;;;7.47;;
7179;SDS011;3631;42.152;24.756;2022-12-18T05:47:46;9.27;;;8.33;;
7179;SDS011;3631;42.152;24.756;2022-12-18T05:50:13;9.80;;;7.50;;
7179;SDS011;3631;42.152;24.756;2022-12-18T05:52:40;8.07;;;7.37;;
7179;SDS011;3631;42.152;24.756;2022-12-18T05:55:07;7.93;;;7.13;;
7179;SDS011;3631;42.152;24.756;2022-12-18T05:57:36;9.10;;;7.90;;
7179;SDS011;3631;42.152;24.756;2022-12-18T06:00:03;8.50;;;7.60;;
7179;SDS011;3631;42.152;24.756;2022-12-18T06:02:30;7.97;;;7.27;;
7179;SDS011;3631;42.152;24.756;2022-12-18T06:04:57;8.00;;;7.27;;
7179;SDS011;3631;42.152;24.756;2022-12-18T06:07:24;8.53;;;6.90;;
7179;SDS011;3631;42.152;24.756;2022-12-18T06:09:51;8.03;;;7.23;;
7179;SDS011;3631;42.152;24.756;2022-12-18T06:12:18;7.90;;;7.10;;
7179;SDS011;3631;42.152;24.756;2022-12-18T06:14:46;8.97;;;6.67;;
7179;SDS011;3631;42.152;24.756;2022-12-18T06:17:13;7.57;;;6.87;;
7179;SDS011;3631;42.152;24.756;2022-12-18T06:19:40;8.90;;;7.93;;
7179;SDS011;3631;42.152;24.756;2022-12-18T06:22:07;9.13;;;7.73;;
7179;SDS011;3631;42.152;24.756;2022-12-18T06:24:34;10.87;;;7.30;;
7179;SDS011;3631;42.152;24.756;2022-12-18T06:27:01;9.30;;;7.53;;
7179;SDS011;3631;42.152;24.756;2022-12-18T06:29:28;8.40;;;7.47;;
7179;SDS011;3631;42.152;24.756;2022-12-18T06:31:56;9.23;;;7.57;;
7179;SDS011;3631;42.152;24.756;2022-12-18T06:34:23;9.33;;;7.00;;
7179;SDS011;3631;42.152;24.756;2022-12-18T06:36:50;7.17;;;6.43;;
7179;SDS011;3631;42.152;24.756;2022-12-18T06:39:17;7.17;;;6.47;;
7179;SDS011;3631;42.152;24.756;2022-12-18T06:41:44;7.57;;;6.87;;
7179;SDS011;3631;42.152;24.756;2022-12-18T06:44:11;7.60;;;6.70;;
7179;SDS011;3631;42.152;24.756;2022-12-18T06:46:37;8.73;;;7.10;;
7179;SDS011;3631;42.152;24.756;2022-12-18T06:49:06;7.47;;;6.80;;
7179;SDS011;3631;42.152;24.756;2022-12-18T06:51:34;9.03;;;6.53;;
7179;SDS011;3631;42.152;24.756;2022-12-18T06:54:01;7.47;;;6.77;;
7179;SDS011;3631;42.152;24.756;2022-12-18T06:56:29;7.70;;;7.00;;
7179;SDS011;3631;42.152;24.756;2022-12-18T06:58:56;9.03;;;6.50;;
7179;SDS011;3631;42.152;24.756;2022-12-18T07:01:23;10.27;;;7.20;;
7179;SDS011;3631;42.152;24.756;2022-12-18T07:03:51;7.95;;;7.15;;
7179;SDS011;3631;42.152;24.756;2022-12-18T07:06:23;8.67;;;7.27;;
7179;SDS011;3631;42.152;24.756;2022-12-18T07:08:51;8.30;;;6.80;;
7179;SDS011;3631;42.152;24.756;2022-12-18T07:11:20;7.43;;;6.73;;
7179;SDS011;3631;42.152;24.756;2022-12-18T07:13:47;8.57;;;6.93;;
7179;SDS011;3631;42.152;24.756;2022-12-18T07:16:14;8.73;;;7.50;;
7179;SDS011;3631;42.152;24.756;2022-12-18T07:18:42;7.70;;;6.90;;
7179;SDS011;3631;42.152;24.756;2022-12-18T07:21:10;8.10;;;7.30;;
7179;SDS011;3631;42.152;24.756;2022-12-18T07:23:39;8.33;;;7.53;;
7179;SDS011;3631;42.152;24.756;2022-12-18T07:26:06;7.97;;;7.23;;
7179;SDS011;3631;42.152;24.756;2022-12-18T07:28:35;7.97;;;7.27;;
7179;SDS011;3631;42.152;24.756;2022-12-18T07:31:03;7.87;;;7.07;;
7179;SDS011;3631;42.152;24.756;2022-12-18T07:33:31;8.93;;;8.03;;
7179;SDS011;3631;42.152;24.756;2022-12-18T07:35:58;7.90;;;7.20;;
7179;SDS011;3631;42.152;24.756;2022-12-18T07:38:25;7.87;;;7.07;;
7179;SDS011;3631;42.152;24.756;2022-12-18T07:40:54;9.23;;;7.43;;
7179;SDS011;3631;42.152;24.756;2022-12-18T07:43:21;8.63;;;7.73;;
7179;SDS011;3631;42.152;24.756;2022-12-18T07:45:48;9.80;;;8.03;;
7179;SDS011;3631;42.152;24.756;2022-12-18T07:48:15;8.00;;;7.23;;
7179;SDS011;3631;42.152;24.756;2022-12-18T07:50:42;10.80;;;7.93;;
7179;SDS011;3631;42.152;24.756;2022-12-18T07:53:09;10.00;;;8.57;;
7179;SDS011;3631;42.152;24.756;2022-12-18T07:55:36;9.00;;;8.07;;
7179;SDS011;3631;42.152;24.756;2022-12-18T07:58:04;10.97;;;9.20;;
7179;SDS011;3631;42.152;24.756;2022-12-18T08:00:31;10.57;;;9.47;;
7179;SDS011;3631;42.152;24.756;2022-12-18T08:02:58;12.37;;;10.37;;
7179;SDS011;3631;42.152;24.756;2022-12-18T08:05:25;9.47;;;8.27;;
7179;SDS011;3631;42.152;24.756;2022-12-18T08:07:53;12.53;;;8.73;;
7179;SDS011;3631;42.152;24.756;2022-12-18T08:10:21;11.23;;;10.03;;
7179;SDS011;3631;42.152;24.756;2022-12-18T08:12:49;10.33;;;9.07;;
7179;SDS011;3631;42.152;24.756;2022-12-18T08:15:17;23.07;;;17.10;;
7179;SDS011;3631;42.152;24.756;2022-12-18T08:17:44;12.03;;;10.30;;
7179;SDS011;3631;42.152;24.756;2022-12-18T08:20:11;12.20;;;9.93;;
7179;SDS011;3631;42.152;24.756;2022-12-18T08:22:40;10.63;;;8.90;;
7179;SDS011;3631;42.152;24.756;2022-12-18T08:25:07;11.73;;;9.03;;
7179;SDS011;3631;42.152;24.756;2022-12-18T08:27:35;10.07;;;8.90;;
7179;SDS011;3631;42.152;24.756;2022-12-18T08:30:02;11.50;;;9.43;;
7179;SDS011;3631;42.152;24.756;2022-12-18T08:32:32;12.00;;;8.80;;
7179;SDS011;3631;42.152;24.756;2022-12-18T08:34:59;10.30;;;9.03;;
7179;SDS011;3631;42.152;24.756;2022-12-18T08:37:26;12.07;;;8.63;;
7179;SDS011;3631;42.152;24.756;2022-12-18T08:39:52;10.97;;;8.90;;
7179;SDS011;3631;42.152;24.756;2022-12-18T08:42:19;11.63;;;9.67;;
7179;SDS011;3631;42.152;24.756;2022-12-18T08:45:04;11.07;;;9.90;;
7179;SDS011;3631;42.152;24.756;2022-12-18T08:47:33;11.10;;;9.77;;
7179;SDS011;3631;42.152;24.756;2022-12-18T08:50:00;12.50;;;9.17;;
7179;SDS011;3631;42.152;24.756;2022-12-18T08:52:27;10.30;;;9.20;;
7179;SDS011;3631;42.152;24.756;2022-12-18T08:54:53;13.63;;;10.50;;
7179;SDS011;3631;42.152;24.756;2022-12-18T08:57:20;15.43;;;10.27;;
7179;SDS011;3631;42.152;24.756;2022-12-18T08:59:47;16.40;;;11.27;;
7179;SDS011;3631;42.152;24.756;2022-12-18T09:02:14;16.40;;;12.63;;
7179;SDS011;3631;42.152;24.756;2022-12-18T09:04:42;13.97;;;10.00;;
7179;SDS011;3631;42.152;24.756;2022-12-18T09:07:09;28.97;;;17.37;;
7179;SDS011;3631;42.152;24.756;2022-12-18T09:09:36;46.97;;;27.00;;
7179;SDS011;3631;42.152;24.756;2022-12-18T09:12:03;64.13;;;36.37;;
7179;SDS011;3631;42.152;24.756;2022-12-18T09:14:30;41.73;;;26.20;;
7179;SDS011;3631;42.152;24.756;2022-12-18T09:16:57;32.47;;;20.17;;
7179;SDS011;3631;42.152;24.756;2022-12-18T09:19:24;35.20;;;23.83;;
7179;SDS011;3631;42.152;24.756;2022-12-18T09:21:52;20.80;;;15.10;;
7179;SDS011;3631;42.152;24.756;2022-12-18T09:24:22;18.13;;;12.87;;
7179;SDS011;3631;42.152;24.756;2022-12-18T09:26:52;19.30;;;14.20;;
7179;SDS011;3631;42.152;24.756;2022-12-18T09:29:20;16.73;;;12.27;;
7179;SDS011;3631;42.152;24.756;2022-12-18T09:31:47;14.93;;;12.43;;
7179;SDS011;3631;42.152;24.756;2022-12-18T09:34:14;12.17;;;10.03;;
7179;SDS011;3631;42.152;24.756;2022-12-18T09:36:41;13.67;;;11.93;;
7179;SDS011;3631;42.152;24.756;2022-12-18T09:39:10;13.03;;;10.83;;
7179;SDS011;3631;42.152;24.756;2022-12-18T09:41:41;10.87;;;9.37;;
7179;SDS011;3631;42.152;24.756;2022-12-18T09:44:12;11.77;;;10.47;;
7179;SDS011;3631;42.152;24.756;2022-12-18T09:46:45;13.40;;;10.97;;
7179;SDS011;3631;42.152;24.756;2022-12-18T09:49:16;12.07;;;9.30;;
7179;SDS011;3631;42.152;24.756;2022-12-18T09:51:47;10.67;;;9.47;;
7179;SDS011;3631;42.152;24.756;2022-12-18T09:54:20;14.03;;;11.60;;
7179;SDS011;3631;42.152;24.756;2022-12-18T09:56:50;13.23;;;10.00;;
7179;SDS011;3631;42.152;24.756;2022-12-18T09:59:20;11.23;;;9.60;;
7179;SDS011;3631;42.152;24.756;2022-12-18T10:01:50;12.60;;;11.30;;
7179;SDS011;3631;42.152;24.756;2022-12-18T10:04:17;12.33;;;10.33;;
7179;SDS011;3631;42.152;24.756;2022-12-18T10:06:46;13.40;;;11.17;;
7179;SDS011;3631;42.152;24.756;2022-12-18T10:09:23;12.97;;;10.50;;
7179;SDS011;3631;42.152;24.756;2022-12-18T10:11:58;14.10;;;10.60;;
7179;SDS011;3631;42.152;24.756;2022-12-18T10:14:33;16.90;;;11.83;;
7179;SDS011;3631;42.152;24.756;2022-12-18T10:17:10;14.27;;;12.23;;
7179;SDS011;3631;42.152;24.756;2022-12-18T10:19:45;14.93;;;10.83;;
7179;SDS011;3631;42.152;24.756;2022-12-18T10:22:29;15.90;;;14.20;;
7179;SDS011;3631;42.152;24.756;2022-12-18T10:25:10;13.90;;;11.47;;
7179;SDS011;3631;42.152;24.756;2022-12-18T10:27:45;14.00;;;9.83;;
7179;SDS011;3631;42.152;24.756;2022-12-18T10:30:14;12.90;;;10.57;;
7179;SDS011;3631;42.152;24.756;2022-12-18T10:32:42;12.03;;;10.43;;
7179;SDS011;3631;42.152;24.756;2022-12-18T10:35:11;11.60;;;9.97;;
7179;SDS011;3631;42.152;24.756;2022-12-18T10:37:58;14.13;;;10.50;;
7179;SDS011;3631;42.152;24.756;2022-12-18T10:40:28;14.50;;;11.77;;
7179;SDS011;3631;42.152;24.756;2022-12-18T10:43:05;17.43;;;13.53;;
7179;SDS011;3631;42.152;24.756;2022-12-18T10:45:38;26.87;;;17.13;;
7179;SDS011;3631;42.152;24.756;2022-12-18T10:48:05;20.73;;;14.00;;
7179;SDS011;3631;42.152;24.756;2022-12-18T10:50:46;13.80;;;10.50;;
7179;SDS011;3631;42.152;24.756;2022-12-18T10:53:16;11.97;;;10.20;;
7179;SDS011;3631;42.152;24.756;2022-12-18T10:55:48;14.80;;;9.93;;
7179;SDS011;3631;42.152;24.756;2022-12-18T10:58:16;11.50;;;9.57;;
7179;SDS011;3631;42.152;24.756;2022-12-18T11:01:01;11.03;;;9.63;;
7179;SDS011;3631;42.152;24.756;2022-12-18T11:03:30;10.73;;;9.63;;
7179;SDS011;3631;42.152;24.756;2022-12-18T11:06:07;10.77;;;9.33;;
7179;SDS011;3631;42.152;24.756;2022-12-18T11:08:36;21.27;;;14.30;;
7179;SDS011;3631;42.152;24.756;2022-12-18T11:11:07;29.30;;;16.57;;
7179;SDS011;3631;42.152;24.756;2022-12-18T11:13:42;26.90;;;15.83;;
7179;SDS011;3631;42.152;24.756;2022-12-18T11:16:25;17.47;;;12.77;;
7179;SDS011;3631;42.152;24.756;2022-12-18T11:18:53;35.30;;;19.87;;
7179;SDS011;3631;42.152;24.756;2022-12-18T11:21:20;18.77;;;13.60;;
7179;SDS011;3631;42.152;24.756;2022-12-18T11:23:49;12.70;;;10.67;;
7179;SDS011;3631;42.152;24.756;2022-12-18T11:26:19;15.23;;;12.47;;
7179;SDS011;3631;42.152;24.756;2022-12-18T11:28:47;19.37;;;14.83;;
7179;SDS011;3631;42.152;24.756;2022-12-18T11:31:21;15.80;;;12.07;;
7179;SDS011;3631;42.152;24.756;2022-12-18T11:33:52;28.20;;;17.97;;
7179;SDS011;3631;42.152;24.756;2022-12-18T11:36:24;20.13;;;13.10;;
7179;SDS011;3631;42.152;24.756;2022-12-18T11:38:54;19.57;;;13.70;;
7179;SDS011;3631;42.152;24.756;2022-12-18T11:41:28;16.83;;;12.80;;
7179;SDS011;3631;42.152;24.756;2022-12-18T11:44:13;13.63;;;10.43;;
7179;SDS011;3631;42.152;24.756;2022-12-18T11:46:47;15.47;;;10.73;;
7179;SDS011;3631;42.152;24.756;2022-12-18T11:49:19;17.07;;;11.83;;
7179;SDS011;3631;42.152;24.756;2022-12-18T11:51:53;17.03;;;13.07;;
7179;SDS011;3631;42.152;24.756;2022-12-18T11:54:25;16.97;;;13.17;;
7179;SDS011;3631;42.152;24.756;2022-12-18T11:56:55;53.77;;;32.60;;
7179;SDS011;3631;42.152;24.756;2022-12-18T11:59:28;32.33;;;20.70;;
7179;SDS011;3631;42.152;24.756;2022-12-18T12:02:09;43.20;;;26.97;;
7179;SDS011;3631;42.152;24.756;2022-12-18T12:04:56;38.13;;;24.23;;
7179;SDS011;3631;42.152;24.756;2022-12-18T12:07:42;30.83;;;20.03;;
7179;SDS011;3631;42.152;24.756;2022-12-18T12:13:11;32.60;;;22.83;;
7179;SDS011;3631;42.152;24.756;2022-12-18T12:15:50;34.77;;;25.77;;
7179;SDS011;3631;42.152;24.756;2022-12-18T12:18:25;27.57;;;20.30;;
7179;SDS011;3631;42.152;24.756;2022-12-18T12:21:01;22.17;;;17.13;;
7179;SDS011;3631;42.152;24.756;2022-12-18T12:23:37;16.07;;;12.73;;
7179;SDS011;3631;42.152;24.756;2022-12-18T12:26:11;27.80;;;23.93;;
7179;SDS011;3631;42.152;24.756;2022-12-18T12:28:50;17.10;;;14.27;;
7179;SDS011;3631;42.152;24.756;2022-12-18T12:31:29;17.77;;;14.27;;
7179;SDS011;3631;42.152;24.756;2022-12-18T12:34:05;19.00;;;13.83;;
7179;SDS011;3631;42.152;24.756;2022-12-18T12:36:44;16.93;;;13.00;;
7179;SDS011;3631;42.152;24.756;2022-12-18T12:39:21;20.33;;;15.10;;
7179;SDS011;3631;42.152;24.756;2022-12-18T12:41:52;14.30;;;12.80;;
7179;SDS011;3631;42.152;24.756;2022-12-18T12:44:41;23.07;;;18.87;;
7179;SDS011;3631;42.152;24.756;2022-12-18T12:47:13;24.50;;;18.03;;
7179;SDS011;3631;42.152;24.756;2022-12-18T12:49:42;20.67;;;15.93;;
7179;SDS011;3631;42.152;24.756;2022-12-18T12:52:13;20.33;;;15.83;;
7179;SDS011;3631;42.152;24.756;2022-12-18T12:54:44;17.90;;;14.10;;
7179;SDS011;3631;42.152;24.756;2022-12-18T12:57:12;14.03;;;11.87;;
7179;SDS011;3631;42.152;24.756;2022-12-18T12:59:49;15.77;;;13.03;;
7179;SDS011;3631;42.152;24.756;2022-12-18T13:02:24;16.43;;;12.83;;
7179;SDS011;3631;42.152;24.756;2022-12-18T13:05:01;13.70;;;11.33;;
7179;SDS011;3631;42.152;24.756;2022-12-18T13:07:34;11.80;;;10.20;;
7179;SDS011;3631;42.152;24.756;2022-12-18T13:10:11;15.80;;;11.40;;
7179;SDS011;3631;42.152;24.756;2022-12-18T13:12:54;40.93;;;27.17;;
7179;SDS011;3631;42.152;24.756;2022-12-18T13:15:23;24.70;;;18.23;;
7179;SDS011;3631;42.152;24.756;2022-12-18T13:18:04;34.30;;;21.90;;
7179;SDS011;3631;42.152;24.756;2022-12-18T13:20:37;24.60;;;17.77;;
7179;SDS011;3631;42.152;24.756;2022-12-18T13:23:19;31.43;;;21.53;;
7179;SDS011;3631;42.152;24.756;2022-12-18T13:25:53;32.47;;;21.80;;
7179;SDS011;3631;42.152;24.756;2022-12-18T13:28:22;27.83;;;20.13;;
7179;SDS011;3631;42.152;24.756;2022-12-18T13:30:53;25.87;;;19.20;;
7179;SDS011;3631;42.152;24.756;2022-12-18T13:33:37;26.07;;;19.30;;
7179;SDS011;3631;42.152;24.756;2022-12-18T13:36:12;26.47;;;18.20;;
7179;SDS011;3631;42.152;24.756;2022-12-18T13:38:41;22.00;;;16.23;;
7179;SDS011;3631;42.152;24.756;2022-12-18T13:43:54;20.80;;;15.83;;
7179;SDS011;3631;42.152;24.756;2022-12-18T13:46:26;22.73;;;15.00;;
7179;SDS011;3631;42.152;24.756;2022-12-18T13:48:59;21.37;;;15.47;;
7179;SDS011;3631;42.152;24.756;2022-12-18T13:51:30;18.87;;;14.97;;
7179;SDS011;3631;42.152;24.756;2022-12-18T13:54:00;20.00;;;16.07;;
7179;SDS011;3631;42.152;24.756;2022-12-18T13:56:30;19.20;;;15.10;;
7179;SDS011;3631;42.152;24.756;2022-12-18T13:59:12;22.13;;;16.33;;
7179;SDS011;3631;42.152;24.756;2022-12-18T14:01:43;24.17;;;18.37;;
7179;SDS011;3631;42.152;24.756;2022-12-18T14:04:16;24.23;;;18.43;;
7179;SDS011;3631;42.152;24.756;2022-12-18T14:06:46;23.10;;;17.80;;
7179;SDS011;3631;42.152;24.756;2022-12-18T14:09:14;28.43;;;23.13;;
7179;SDS011;3631;42.152;24.756;2022-12-18T14:11:46;24.87;;;20.60;;
7179;SDS011;3631;42.152;24.756;2022-12-18T14:14:14;19.93;;;14.87;;
7179;SDS011;3631;42.152;24.756;2022-12-18T14:16:43;26.30;;;17.40;;
7179;SDS011;3631;42.152;24.756;2022-12-18T14:19:13;50.47;;;35.17;;
7179;SDS011;3631;42.152;24.756;2022-12-18T14:21:45;54.10;;;40.13;;
7179;SDS011;3631;42.152;24.756;2022-12-18T14:24:13;42.37;;;32.00;;
7179;SDS011;3631;42.152;24.756;2022-12-18T14:26:41;31.60;;;22.50;;
7179;SDS011;3631;42.152;24.756;2022-12-18T14:29:20;31.60;;;24.00;;
7179;SDS011;3631;42.152;24.756;2022-12-18T14:32:09;31.60;;;24.87;;
7179;SDS011;3631;42.152;24.756;2022-12-18T14:34:39;28.77;;;23.50;;
7179;SDS011;3631;42.152;24.756;2022-12-18T14:37:08;32.67;;;23.27;;
7179;SDS011;3631;42.152;24.756;2022-12-18T14:39:36;33.23;;;23.40;;
7179;SDS011;3631;42.152;24.756;2022-12-18T14:42:03;26.03;;;19.37;;
7179;SDS011;3631;42.152;24.756;2022-12-18T14:44:30;23.53;;;17.83;;
7179;SDS011;3631;42.152;24.756;2022-12-18T14:46:57;24.07;;;17.83;;
7179;SDS011;3631;42.152;24.756;2022-12-18T14:49:26;36.83;;;24.63;;
7179;SDS011;3631;42.152;24.756;2022-12-18T14:51:56;29.80;;;20.63;;
7179;SDS011;3631;42.152;24.756;2022-12-18T14:54:29;33.67;;;22.83;;
7179;SDS011;3631;42.152;24.756;2022-12-18T14:56:58;32.17;;;22.37;;
7179;SDS011;3631;42.152;24.756;2022-12-18T14:59:27;27.40;;;17.37;;
7179;SDS011;3631;42.152;24.756;2022-12-18T15:01:58;22.07;;;16.90;;
7179;SDS011;3631;42.152;24.756;2022-12-18T15:04:30;27.43;;;18.47;;